Jasper, TX

8:09 PM CDT on September 26, 2016 (GMT -0500)
North Jasper | | Change Station

Elev 308 ft 30.93 °N, 94.00 °W | Updated 10 minutes ago

Light Drizzle
Light Drizzle
76.0 °F
Feels Like 76 °F
N
0.0
Wind Variable Wind from East
Gusts 0.0 mph

Today
High -- | Low -- °F
--% Chance of Precip.
Yesterday
High -- | Low -- °F
Precip. -- in
Pressure 30.04 in
Visibility 10.0 miles
Clouds Mostly Cloudy 2300 ft
Mostly Cloudy 4500 ft
Heat Index 76 °F
Dew Point 72 °F
Humidity 86%
Rainfall 0.00 in
Snow Depth Not available.
7:07 AM 7:06 PM
Waning Crescent, 15% visible
METAR KJAS 270055Z AUTO 00000KT 10SM -DZ BKN023 BKN045 24/23 A3004 RMK AO2 P0001 T02410232
Pressure 30.04 in
Visibility 10.0 miles
Clouds Mostly Cloudy 2300 ft
Mostly Cloudy 4500 ft
Heat Index 76 °F
Dew Point 72 °F
Humidity 86%
Rainfall 0.00 in
Snow Depth Not available.
7:07 AM 7:06 PM
Waning Crescent, 15% visible
METAR KJAS 270055Z AUTO 00000KT 10SM -DZ BKN023 BKN045 24/23 A3004 RMK AO2 P0001 T02410232

10-Day Weather Forecast

Almanac

Astronomy

Sep. 26, 2016 Rise Set
Actual Time
Civil Twilight
Nautical Twilight
Astronomical Twilight
Moon
Length of Visible Light
Length of Day
Tomorrow will be .
, % of the Moon is Illuminated

Today's Extremes

State Highs State Lows

Community

WunderPhotos

Upload Photos

1,941,993 photos uploaded!

WunderBlog® & News

Nearby

Air Quality

  Air Quality AQ Index Pollutant
Not available.

Snow Depth

Station Depth Elevation

Earthquake Activity

City Distance Mag. Time & Date
Minimum magnitude displayed is 2.5.

Coastal Water Temperatures

Place Temperature

Stations

Nearby Weather Stations

Station Location Temp. Windchill Dew Point Humidity Wind Precip. Elev Updated Type
                   

Watches & Warnings

There are currently no watches in effect.